sensor_id;sensor_type;location;lat;lon;timestamp;temperature;humidity
9919;DHT22;4998;51.024;13.828;2023-07-20T00:00:09;21.60;70.50
9919;DHT22;4998;51.024;13.828;2023-07-20T00:02:38;21.60;70.50
9919;DHT22;4998;51.024;13.828;2023-07-20T00:05:06;21.60;70.80
9919;DHT22;4998;51.024;13.828;2023-07-20T00:07:33;21.60;71.00
9919;DHT22;4998;51.024;13.828;2023-07-20T00:10:00;21.60;71.10
9919;DHT22;4998;51.024;13.828;2023-07-20T00:12:28;21.60;71.30
9919;DHT22;4998;51.024;13.828;2023-07-20T00:14:55;21.60;71.70
9919;DHT22;4998;51.024;13.828;2023-07-20T00:17:22;21.60;71.70
9919;DHT22;4998;51.024;13.828;2023-07-20T00:19:49;21.60;71.90
9919;DHT22;4998;51.024;13.828;2023-07-20T00:22:16;21.60;72.20
9919;DHT22;4998;51.024;13.828;2023-07-20T00:24:43;21.60;72.30
9919;DHT22;4998;51.024;13.828;2023-07-20T00:27:10;21.60;72.40
9919;DHT22;4998;51.024;13.828;2023-07-20T00:29:39;21.60;72.60
9919;DHT22;4998;51.024;13.828;2023-07-20T00:32:06;21.50;72.90
9919;DHT22;4998;51.024;13.828;2023-07-20T00:34:34;21.60;73.50
9919;DHT22;4998;51.024;13.828;2023-07-20T00:37:01;21.60;73.40
9919;DHT22;4998;51.024;13.828;2023-07-20T00:39:28;21.50;73.50
9919;DHT22;4998;51.024;13.828;2023-07-20T00:41:55;21.50;73.50
9919;DHT22;4998;51.024;13.828;2023-07-20T00:44:22;21.50;73.70
9919;DHT22;4998;51.024;13.828;2023-07-20T00:46:51;21.50;74.10
9919;DHT22;4998;51.024;13.828;2023-07-20T00:49:18;21.50;74.60
9919;DHT22;4998;51.024;13.828;2023-07-20T00:51:48;21.40;74.50
9919;DHT22;4998;51.024;13.828;2023-07-20T00:54:15;21.40;74.70
9919;DHT22;4998;51.024;13.828;2023-07-20T00:56:43;21.40;74.80
9919;DHT22;4998;51.024;13.828;2023-07-20T00:59:11;21.40;74.80
9919;DHT22;4998;51.024;13.828;2023-07-20T01:01:38;21.40;75.00
9919;DHT22;4998;51.024;13.828;2023-07-20T01:04:06;21.40;75.20
9919;DHT22;4998;51.024;13.828;2023-07-20T01:06:41;21.40;75.60
9919;DHT22;4998;51.024;13.828;2023-07-20T01:09:14;21.40;75.90
9919;DHT22;4998;51.024;13.828;2023-07-20T01:11:49;21.30;75.80
9919;DHT22;4998;51.024;13.828;2023-07-20T01:14:20;21.30;76.10
9919;DHT22;4998;51.024;13.828;2023-07-20T01:16:47;21.30;75.90
9919;DHT22;4998;51.024;13.828;2023-07-20T01:19:16;21.30;76.10
9919;DHT22;4998;51.024;13.828;2023-07-20T01:21:51;21.30;76.50
9919;DHT22;4998;51.024;13.828;2023-07-20T01:24:39;21.30;76.80
9919;DHT22;4998;51.024;13.828;2023-07-20T01:30:30;21.30;76.80
9919;DHT22;4998;51.024;13.828;2023-07-20T01:33:02;21.30;76.80
9919;DHT22;4998;51.024;13.828;2023-07-20T01:35:30;21.30;76.50
9919;DHT22;4998;51.024;13.828;2023-07-20T01:37:57;21.30;76.30
9919;DHT22;4998;51.024;13.828;2023-07-20T01:40:25;21.30;76.30
9919;DHT22;4998;51.024;13.828;2023-07-20T01:42:53;21.30;76.20
9919;DHT22;4998;51.024;13.828;2023-07-20T01:45:21;21.30;76.30
9919;DHT22;4998;51.024;13.828;2023-07-20T01:47:48;21.30;76.40
9919;DHT22;4998;51.024;13.828;2023-07-20T01:50:16;21.30;76.50
9919;DHT22;4998;51.024;13.828;2023-07-20T01:52:43;21.20;77.30
9919;DHT22;4998;51.024;13.828;2023-07-20T01:55:10;21.20;76.30
9919;DHT22;4998;51.024;13.828;2023-07-20T01:57:37;21.20;76.30
9919;DHT22;4998;51.024;13.828;2023-07-20T02:00:05;21.20;76.30
9919;DHT22;4998;51.024;13.828;2023-07-20T02:02:34;21.10;76.60
9919;DHT22;4998;51.024;13.828;2023-07-20T02:05:01;21.00;76.40
9919;DHT22;4998;51.024;13.828;2023-07-20T02:07:29;21.00;76.70
9919;DHT22;4998;51.024;13.828;2023-07-20T02:09:56;21.00;77.00
9919;DHT22;4998;51.024;13.828;2023-07-20T02:12:23;20.90;76.90
9919;DHT22;4998;51.024;13.828;2023-07-20T02:14:50;20.90;77.20
9919;DHT22;4998;51.024;13.828;2023-07-20T02:17:18;20.90;77.30
9919;DHT22;4998;51.024;13.828;2023-07-20T02:19:45;20.90;77.50
9919;DHT22;4998;51.024;13.828;2023-07-20T02:22:15;20.80;77.50
9919;DHT22;4998;51.024;13.828;2023-07-20T02:24:44;20.80;77.60
9919;DHT22;4998;51.024;13.828;2023-07-20T02:27:11;20.80;77.80
9919;DHT22;4998;51.024;13.828;2023-07-20T02:29:40;20.80;77.80
9919;DHT22;4998;51.024;13.828;2023-07-20T02:32:08;20.80;78.00
9919;DHT22;4998;51.024;13.828;2023-07-20T02:34:35;20.80;78.30
9919;DHT22;4998;51.024;13.828;2023-07-20T02:37:02;20.80;78.40
9919;DHT22;4998;51.024;13.828;2023-07-20T02:39:30;20.80;78.50
9919;DHT22;4998;51.024;13.828;2023-07-20T02:41:58;20.80;78.60
9919;DHT22;4998;51.024;13.828;2023-07-20T02:44:25;20.80;78.70
9919;DHT22;4998;51.024;13.828;2023-07-20T02:46:52;20.80;78.70
9919;DHT22;4998;51.024;13.828;2023-07-20T02:49:19;20.80;78.70
9919;DHT22;4998;51.024;13.828;2023-07-20T02:51:46;20.80;78.80
9919;DHT22;4998;51.024;13.828;2023-07-20T02:54:13;20.80;78.80
9919;DHT22;4998;51.024;13.828;2023-07-20T02:56:40;20.80;78.80
9919;DHT22;4998;51.024;13.828;2023-07-20T02:59:08;20.80;79.00
9919;DHT22;4998;51.024;13.828;2023-07-20T03:01:36;20.80;79.10
9919;DHT22;4998;51.024;13.828;2023-07-20T03:04:03;20.80;79.10
9919;DHT22;4998;51.024;13.828;2023-07-20T03:06:30;20.80;79.30
9919;DHT22;4998;51.024;13.828;2023-07-20T03:08:57;20.80;79.30
9919;DHT22;4998;51.024;13.828;2023-07-20T03:11:24;20.80;79.50
9919;DHT22;4998;51.024;13.828;2023-07-20T03:13:51;20.80;79.60
9919;DHT22;4998;51.024;13.828;2023-07-20T03:16:20;20.70;79.70
9919;DHT22;4998;51.024;13.828;2023-07-20T03:18:47;20.70;80.00
9919;DHT22;4998;51.024;13.828;2023-07-20T03:21:14;20.70;79.90
9919;DHT22;4998;51.024;13.828;2023-07-20T03:23:41;20.80;80.10
9919;DHT22;4998;51.024;13.828;2023-07-20T03:26:08;20.80;80.10
9919;DHT22;4998;51.024;13.828;2023-07-20T03:28:35;20.80;80.20
9919;DHT22;4998;51.024;13.828;2023-07-20T03:31:02;20.70;80.10
9919;DHT22;4998;51.024;13.828;2023-07-20T03:33:31;20.70;80.10
9919;DHT22;4998;51.024;13.828;2023-07-20T03:35:59;20.70;80.40
9919;DHT22;4998;51.024;13.828;2023-07-20T03:38:27;20.70;80.30
9919;DHT22;4998;51.024;13.828;2023-07-20T03:40:56;20.70;80.40
9919;DHT22;4998;51.024;13.828;2023-07-20T03:43:25;20.70;80.60
9919;DHT22;4998;51.024;13.828;2023-07-20T03:45:53;20.70;80.50
9919;DHT22;4998;51.024;13.828;2023-07-20T03:48:21;20.70;80.70
9919;DHT22;4998;51.024;13.828;2023-07-20T03:50:51;20.70;80.80
9919;DHT22;4998;51.024;13.828;2023-07-20T03:53:18;20.70;81.00
9919;DHT22;4998;51.024;13.828;2023-07-20T03:55:46;20.70;80.80
9919;DHT22;4998;51.024;13.828;2023-07-20T03:58:13;20.70;80.90
9919;DHT22;4998;51.024;13.828;2023-07-20T04:00:44;20.70;80.80
9919;DHT22;4998;51.024;13.828;2023-07-20T04:03:11;20.70;81.00
9919;DHT22;4998;51.024;13.828;2023-07-20T04:05:38;20.70;80.80
9919;DHT22;4998;51.024;13.828;2023-07-20T04:08:06;20.60;80.80
9919;DHT22;4998;51.024;13.828;2023-07-20T04:10:33;20.60;81.00
9919;DHT22;4998;51.024;13.828;2023-07-20T04:13:01;20.60;81.00
9919;DHT22;4998;51.024;13.828;2023-07-20T04:15:28;20.60;81.10
9919;DHT22;4998;51.024;13.828;2023-07-20T04:17:55;20.60;81.30
9919;DHT22;4998;51.024;13.828;2023-07-20T04:20:23;20.60;81.50
9919;DHT22;4998;51.024;13.828;2023-07-20T04:22:50;20.60;81.60
9919;DHT22;4998;51.024;13.828;2023-07-20T04:25:19;20.60;81.70
9919;DHT22;4998;51.024;13.828;2023-07-20T04:27:46;20.60;81.90
9919;DHT22;4998;51.024;13.828;2023-07-20T04:30:13;20.70;81.70
9919;DHT22;4998;51.024;13.828;2023-07-20T04:32:41;20.70;81.70
9919;DHT22;4998;51.024;13.828;2023-07-20T04:35:09;20.70;81.80
9919;DHT22;4998;51.024;13.828;2023-07-20T04:37:36;20.70;81.90
9919;DHT22;4998;51.024;13.828;2023-07-20T04:40:04;20.80;82.20
9919;DHT22;4998;51.024;13.828;2023-07-20T04:42:35;20.80;82.30
9919;DHT22;4998;51.024;13.828;2023-07-20T04:45:02;20.90;82.60
9919;DHT22;4998;51.024;13.828;2023-07-20T04:47:29;21.00;82.60
9919;DHT22;4998;51.024;13.828;2023-07-20T04:49:56;21.00;82.50
9919;DHT22;4998;51.024;13.828;2023-07-20T04:52:23;21.10;82.40
9919;DHT22;4998;51.024;13.828;2023-07-20T04:54:50;21.20;82.40
9919;DHT22;4998;51.024;13.828;2023-07-20T04:57:17;21.20;82.20
9919;DHT22;4998;51.024;13.828;2023-07-20T04:59:46;21.30;82.20
9919;DHT22;4998;51.024;13.828;2023-07-20T05:02:13;21.30;82.00
9919;DHT22;4998;51.024;13.828;2023-07-20T05:04:40;21.30;81.90
9919;DHT22;4998;51.024;13.828;2023-07-20T05:07:07;21.30;82.00
9919;DHT22;4998;51.024;13.828;2023-07-20T05:09:34;21.30;82.00
9919;DHT22;4998;51.024;13.828;2023-07-20T05:12:01;21.30;81.90
9919;DHT22;4998;51.024;13.828;2023-07-20T05:14:28;21.40;82.00
9919;DHT22;4998;51.024;13.828;2023-07-20T05:16:56;21.40;81.90
9919;DHT22;4998;51.024;13.828;2023-07-20T05:19:25;21.40;81.90
9919;DHT22;4998;51.024;13.828;2023-07-20T05:21:51;21.50;81.90
9919;DHT22;4998;51.024;13.828;2023-07-20T05:24:18;21.50;81.70
9919;DHT22;4998;51.024;13.828;2023-07-20T05:26:45;21.50;81.70
9919;DHT22;4998;51.024;13.828;2023-07-20T05:29:12;21.50;81.90
9919;DHT22;4998;51.024;13.828;2023-07-20T05:31:39;21.50;82.00
9919;DHT22;4998;51.024;13.828;2023-07-20T05:34:08;21.60;82.00
9919;DHT22;4998;51.024;13.828;2023-07-20T05:36:35;21.60;82.00
9919;DHT22;4998;51.024;13.828;2023-07-20T05:39:02;21.60;81.90
9919;DHT22;4998;51.024;13.828;2023-07-20T05:41:29;21.60;81.70
9919;DHT22;4998;51.024;13.828;2023-07-20T05:43:56;21.60;81.70
9919;DHT22;4998;51.024;13.828;2023-07-20T05:46:23;21.70;81.70
9919;DHT22;4998;51.024;13.828;2023-07-20T05:48:51;21.70;81.40
9919;DHT22;4998;51.024;13.828;2023-07-20T05:51:19;21.70;81.50
9919;DHT22;4998;51.024;13.828;2023-07-20T05:53:46;21.70;81.50
9919;DHT22;4998;51.024;13.828;2023-07-20T05:56:14;21.70;81.40
9919;DHT22;4998;51.024;13.828;2023-07-20T05:58:41;21.60;81.40
9919;DHT22;4998;51.024;13.828;2023-07-20T06:01:08;21.60;81.00
9919;DHT22;4998;51.024;13.828;2023-07-20T06:03:35;21.60;81.30
9919;DHT22;4998;51.024;13.828;2023-07-20T06:06:03;21.70;81.60
9919;DHT22;4998;51.024;13.828;2023-07-20T06:08:32;21.70;81.60
9919;DHT22;4998;51.024;13.828;2023-07-20T06:11:00;21.70;81.40
9919;DHT22;4998;51.024;13.828;2023-07-20T06:13:26;21.70;82.30
9919;DHT22;4998;51.024;13.828;2023-07-20T06:15:53;21.70;81.60
9919;DHT22;4998;51.024;13.828;2023-07-20T06:18:21;21.80;81.50
9919;DHT22;4998;51.024;13.828;2023-07-20T06:20:49;21.80;81.40
9919;DHT22;4998;51.024;13.828;2023-07-20T06:23:18;21.80;81.50
9919;DHT22;4998;51.024;13.828;2023-07-20T06:25:47;21.80;81.50
9919;DHT22;4998;51.024;13.828;2023-07-20T06:28:14;21.80;81.40
9919;DHT22;4998;51.024;13.828;2023-07-20T06:30:41;21.80;81.40
9919;DHT22;4998;51.024;13.828;2023-07-20T06:33:08;21.90;81.50
9919;DHT22;4998;51.024;13.828;2023-07-20T06:35:35;21.90;81.80
9919;DHT22;4998;51.024;13.828;2023-07-20T06:38:02;21.80;82.10
9919;DHT22;4998;51.024;13.828;2023-07-20T06:40:29;21.80;82.20
9919;DHT22;4998;51.024;13.828;2023-07-20T06:42:58;21.70;82.10
9919;DHT22;4998;51.024;13.828;2023-07-20T06:45:25;21.60;82.30
9919;DHT22;4998;51.024;13.828;2023-07-20T06:47:52;21.50;82.40
9919;DHT22;4998;51.024;13.828;2023-07-20T06:50:19;21.40;82.60
9919;DHT22;4998;51.024;13.828;2023-07-20T06:52:46;21.30;82.90
9919;DHT22;4998;51.024;13.828;2023-07-20T06:55:13;21.20;83.20
9919;DHT22;4998;51.024;13.828;2023-07-20T06:57:41;21.10;83.60
9919;DHT22;4998;51.024;13.828;2023-07-20T07:00:13;21.00;84.00
9919;DHT22;4998;51.024;13.828;2023-07-20T07:02:40;21.00;85.00
9919;DHT22;4998;51.024;13.828;2023-07-20T07:05:07;20.90;85.10
9919;DHT22;4998;51.024;13.828;2023-07-20T07:07:34;20.90;85.60
9919;DHT22;4998;51.024;13.828;2023-07-20T07:10:02;20.90;85.80
9919;DHT22;4998;51.024;13.828;2023-07-20T07:12:30;20.90;86.20
9919;DHT22;4998;51.024;13.828;2023-07-20T07:14:58;20.80;86.20
9919;DHT22;4998;51.024;13.828;2023-07-20T07:17:27;20.80;86.20
9919;DHT22;4998;51.024;13.828;2023-07-20T07:19:54;20.80;86.30
9919;DHT22;4998;51.024;13.828;2023-07-20T07:22:22;20.80;86.30
9919;DHT22;4998;51.024;13.828;2023-07-20T07:24:48;20.70;86.50
9919;DHT22;4998;51.024;13.828;2023-07-20T07:27:15;20.80;86.50
9919;DHT22;4998;51.024;13.828;2023-07-20T07:29:43;20.70;86.00
9919;DHT22;4998;51.024;13.828;2023-07-20T07:32:10;20.70;86.40
9919;DHT22;4998;51.024;13.828;2023-07-20T07:34:39;20.70;86.80
9919;DHT22;4998;51.024;13.828;2023-07-20T07:37:06;20.70;87.10
9919;DHT22;4998;51.024;13.828;2023-07-20T07:39:33;20.70;87.10
9919;DHT22;4998;51.024;13.828;2023-07-20T07:42:00;20.80;87.30
9919;DHT22;4998;51.024;13.828;2023-07-20T07:44:27;20.80;87.90
9919;DHT22;4998;51.024;13.828;2023-07-20T07:46:54;20.90;88.60
9919;DHT22;4998;51.024;13.828;2023-07-20T07:49:21;21.00;89.30
9919;DHT22;4998;51.024;13.828;2023-07-20T07:51:50;21.10;89.30
9919;DHT22;4998;51.024;13.828;2023-07-20T07:54:17;21.20;89.50
9919;DHT22;4998;51.024;13.828;2023-07-20T07:56:44;21.30;89.20
9919;DHT22;4998;51.024;13.828;2023-07-20T07:59:11;21.50;89.10
9919;DHT22;4998;51.024;13.828;2023-07-20T08:01:38;21.60;88.60
9919;DHT22;4998;51.024;13.828;2023-07-20T08:04:05;21.70;88.20
9919;DHT22;4998;51.024;13.828;2023-07-20T08:06:32;21.70;87.90
9919;DHT22;4998;51.024;13.828;2023-07-20T08:09:01;21.80;88.00
9919;DHT22;4998;51.024;13.828;2023-07-20T08:11:28;21.80;88.40
9919;DHT22;4998;51.024;13.828;2023-07-20T08:13:59;21.90;88.20
9919;DHT22;4998;51.024;13.828;2023-07-20T08:16:26;22.00;87.50
9919;DHT22;4998;51.024;13.828;2023-07-20T08:18:53;22.10;86.40
9919;DHT22;4998;51.024;13.828;2023-07-20T08:21:20;22.20;86.80
9919;DHT22;4998;51.024;13.828;2023-07-20T08:23:47;22.30;86.60
9919;DHT22;4998;51.024;13.828;2023-07-20T08:26:16;22.30;85.40
9919;DHT22;4998;51.024;13.828;2023-07-20T08:28:44;22.40;84.80
9919;DHT22;4998;51.024;13.828;2023-07-20T08:31:11;22.40;84.30
9919;DHT22;4998;51.024;13.828;2023-07-20T08:33:38;22.40;84.40
9919;DHT22;4998;51.024;13.828;2023-07-20T08:36:05;22.40;84.40
9919;DHT22;4998;51.024;13.828;2023-07-20T08:38:32;22.40;84.70
9919;DHT22;4998;51.024;13.828;2023-07-20T08:40:59;22.40;84.80
9919;DHT22;4998;51.024;13.828;2023-07-20T08:43:29;22.40;85.00
9919;DHT22;4998;51.024;13.828;2023-07-20T08:45:57;22.40;85.00
9919;DHT22;4998;51.024;13.828;2023-07-20T08:48:24;22.50;85.50
9919;DHT22;4998;51.024;13.828;2023-07-20T08:50:52;22.50;84.80
9919;DHT22;4998;51.024;13.828;2023-07-20T08:53:20;22.60;85.00
9919;DHT22;4998;51.024;13.828;2023-07-20T08:55:50;22.60;84.50
9919;DHT22;4998;51.024;13.828;2023-07-20T08:58:17;22.70;84.20
9919;DHT22;4998;51.024;13.828;2023-07-20T09:00:46;22.70;84.20
9919;DHT22;4998;51.024;13.828;2023-07-20T09:03:16;22.70;84.40
9919;DHT22;4998;51.024;13.828;2023-07-20T09:05:43;22.70;84.10
9919;DHT22;4998;51.024;13.828;2023-07-20T09:08:11;22.70;84.10
9919;DHT22;4998;51.024;13.828;2023-07-20T09:10:38;22.80;84.20
9919;DHT22;4998;51.024;13.828;2023-07-20T09:13:05;22.80;83.80
9919;DHT22;4998;51.024;13.828;2023-07-20T09:15:32;22.90;83.10
9919;DHT22;4998;51.024;13.828;2023-07-20T09:18:01;22.90;82.80
9919;DHT22;4998;51.024;13.828;2023-07-20T09:20:32;23.00;81.80
9919;DHT22;4998;51.024;13.828;2023-07-20T09:23:00;23.00;81.50
9919;DHT22;4998;51.024;13.828;2023-07-20T09:25:30;23.10;81.30
9919;DHT22;4998;51.024;13.828;2023-07-20T09:28:02;23.20;81.70
9919;DHT22;4998;51.024;13.828;2023-07-20T09:30:29;23.20;82.00
9919;DHT22;4998;51.024;13.828;2023-07-20T09:32:56;23.30;81.20
9919;DHT22;4998;51.024;13.828;2023-07-20T09:35:25;23.40;80.90
9919;DHT22;4998;51.024;13.828;2023-07-20T09:37:55;23.50;80.80
9919;DHT22;4998;51.024;13.828;2023-07-20T09:40:22;23.50;80.10
9919;DHT22;4998;51.024;13.828;2023-07-20T09:42:52;23.70;80.20
9919;DHT22;4998;51.024;13.828;2023-07-20T09:45:20;23.80;79.40
9919;DHT22;4998;51.024;13.828;2023-07-20T09:47:47;24.00;79.40
9919;DHT22;4998;51.024;13.828;2023-07-20T09:50:14;24.10;78.00
9919;DHT22;4998;51.024;13.828;2023-07-20T09:52:51;24.20;77.50
9919;DHT22;4998;51.024;13.828;2023-07-20T09:55:19;24.30;75.50
9919;DHT22;4998;51.024;13.828;2023-07-20T09:57:49;24.30;75.60
9919;DHT22;4998;51.024;13.828;2023-07-20T10:00:19;24.40;75.20
9919;DHT22;4998;51.024;13.828;2023-07-20T10:02:46;24.40;74.80
9919;DHT22;4998;51.024;13.828;2023-07-20T10:05:15;24.50;74.70
9919;DHT22;4998;51.024;13.828;2023-07-20T10:07:45;24.50;74.00
9919;DHT22;4998;51.024;13.828;2023-07-20T10:10:16;24.50;73.40
9919;DHT22;4998;51.024;13.828;2023-07-20T10:12:46;24.50;72.80
9919;DHT22;4998;51.024;13.828;2023-07-20T10:15:18;24.40;71.80
9919;DHT22;4998;51.024;13.828;2023-07-20T10:17:57;24.40;72.10
9919;DHT22;4998;51.024;13.828;2023-07-20T10:20:27;24.30;73.00
9919;DHT22;4998;51.024;13.828;2023-07-20T10:22:55;24.30;73.70
9919;DHT22;4998;51.024;13.828;2023-07-20T10:25:24;24.20;74.00
9919;DHT22;4998;51.024;13.828;2023-07-20T10:27:52;24.10;74.20
9919;DHT22;4998;51.024;13.828;2023-07-20T10:30:19;24.00;73.90
9919;DHT22;4998;51.024;13.828;2023-07-20T10:32:47;23.90;73.90
9919;DHT22;4998;51.024;13.828;2023-07-20T10:35:15;23.80;73.50
9919;DHT22;4998;51.024;13.828;2023-07-20T10:37:47;23.80;73.20
9919;DHT22;4998;51.024;13.828;2023-07-20T10:40:27;23.70;73.50
9919;DHT22;4998;51.024;13.828;2023-07-20T10:43:04;23.60;74.60
9919;DHT22;4998;51.024;13.828;2023-07-20T10:45:40;23.50;75.10
9919;DHT22;4998;51.024;13.828;2023-07-20T10:48:14;23.60;76.60
9919;DHT22;4998;51.024;13.828;2023-07-20T10:50:42;23.60;77.10
9919;DHT22;4998;51.024;13.828;2023-07-20T10:53:14;23.60;77.50
9919;DHT22;4998;51.024;13.828;2023-07-20T10:55:43;23.50;77.50
9919;DHT22;4998;51.024;13.828;2023-07-20T10:58:13;23.50;77.60
9919;DHT22;4998;51.024;13.828;2023-07-20T11:01:01;23.60;78.00
9919;DHT22;4998;51.024;13.828;2023-07-20T11:03:32;23.60;78.00
9919;DHT22;4998;51.024;13.828;2023-07-20T11:05:59;23.60;79.00
9919;DHT22;4998;51.024;13.828;2023-07-20T11:08:39;23.70;77.80
9919;DHT22;4998;51.024;13.828;2023-07-20T11:11:25;23.70;77.00
9919;DHT22;4998;51.024;13.828;2023-07-20T11:13:57;23.70;76.30
9919;DHT22;4998;51.024;13.828;2023-07-20T11:16:38;23.70;76.40
9919;DHT22;4998;51.024;13.828;2023-07-20T11:19:13;23.70;75.60
9919;DHT22;4998;51.024;13.828;2023-07-20T11:21:42;23.70;75.60
9919;DHT22;4998;51.024;13.828;2023-07-20T11:24:09;23.70;76.10
9919;DHT22;4998;51.024;13.828;2023-07-20T11:26:47;23.70;76.40
9919;DHT22;4998;51.024;13.828;2023-07-20T11:29:16;23.60;77.60
9919;DHT22;4998;51.024;13.828;2023-07-20T11:31:45;23.60;77.50
9919;DHT22;4998;51.024;13.828;2023-07-20T11:34:13;23.50;78.30
9919;DHT22;4998;51.024;13.828;2023-07-20T11:36:42;23.50;78.50
9919;DHT22;4998;51.024;13.828;2023-07-20T11:39:10;23.50;78.40
9919;DHT22;4998;51.024;13.828;2023-07-20T11:41:37;23.50;77.80
9919;DHT22;4998;51.024;13.828;2023-07-20T11:44:06;23.40;76.90
9919;DHT22;4998;51.024;13.828;2023-07-20T11:46:39;23.40;77.00
9919;DHT22;4998;51.024;13.828;2023-07-20T11:49:06;23.40;76.60
9919;DHT22;4998;51.024;13.828;2023-07-20T11:51:34;23.30;76.60
9919;DHT22;4998;51.024;13.828;2023-07-20T11:54:02;23.30;77.50
9919;DHT22;4998;51.024;13.828;2023-07-20T11:56:30;23.30;77.70
9919;DHT22;4998;51.024;13.828;2023-07-20T11:58:57;23.30;77.60
9919;DHT22;4998;51.024;13.828;2023-07-20T12:01:30;23.30;77.60
9919;DHT22;4998;51.024;13.828;2023-07-20T12:03:59;23.30;78.60
9919;DHT22;4998;51.024;13.828;2023-07-20T12:06:27;23.40;77.90
9919;DHT22;4998;51.024;13.828;2023-07-20T12:08:56;23.50;78.00
9919;DHT22;4998;51.024;13.828;2023-07-20T12:11:33;23.50;77.80
9919;DHT22;4998;51.024;13.828;2023-07-20T12:14:01;23.60;77.80
9919;DHT22;4998;51.024;13.828;2023-07-20T12:16:30;23.70;77.30
9919;DHT22;4998;51.024;13.828;2023-07-20T12:19:01;23.70;76.70
9919;DHT22;4998;51.024;13.828;2023-07-20T12:21:28;23.80;76.30
9919;DHT22;4998;51.024;13.828;2023-07-20T12:23:56;23.80;76.00
9919;DHT22;4998;51.024;13.828;2023-07-20T12:26:24;23.80;76.20
9919;DHT22;4998;51.024;13.828;2023-07-20T12:28:52;23.80;75.80
9919;DHT22;4998;51.024;13.828;2023-07-20T12:31:19;23.80;75.50
9919;DHT22;4998;51.024;13.828;2023-07-20T12:33:48;23.80;75.10
9919;DHT22;4998;51.024;13.828;2023-07-20T12:36:15;23.70;75.60
9919;DHT22;4998;51.024;13.828;2023-07-20T12:38:42;23.60;76.20
9919;DHT22;4998;51.024;13.828;2023-07-20T12:41:10;23.60;76.80
9919;DHT22;4998;51.024;13.828;2023-07-20T12:43:39;23.60;77.60
9919;DHT22;4998;51.024;13.828;2023-07-20T12:46:06;23.50;77.50
9919;DHT22;4998;51.024;13.828;2023-07-20T12:48:34;23.50;77.90
9919;DHT22;4998;51.024;13.828;2023-07-20T12:51:04;23.40;77.80
9919;DHT22;4998;51.024;13.828;2023-07-20T12:53:31;23.30;77.70
9919;DHT22;4998;51.024;13.828;2023-07-20T12:55:59;23.30;77.90
9919;DHT22;4998;51.024;13.828;2023-07-20T12:58:26;23.20;78.60
9919;DHT22;4998;51.024;13.828;2023-07-20T13:00:54;23.20;79.00
9919;DHT22;4998;51.024;13.828;2023-07-20T13:03:21;23.10;78.80
9919;DHT22;4998;51.024;13.828;2023-07-20T13:05:48;23.10;78.60
9919;DHT22;4998;51.024;13.828;2023-07-20T13:08:17;23.10;78.40
9919;DHT22;4998;51.024;13.828;2023-07-20T13:10:45;23.00;78.40
9919;DHT22;4998;51.024;13.828;2023-07-20T13:13:12;23.00;78.00
9919;DHT22;4998;51.024;13.828;2023-07-20T13:15:43;22.90;78.50
9919;DHT22;4998;51.024;13.828;2023-07-20T13:18:12;22.80;78.70
9919;DHT22;4998;51.024;13.828;2023-07-20T13:20:39;22.80;78.00
9919;DHT22;4998;51.024;13.828;2023-07-20T13:23:06;22.70;77.70
9919;DHT22;4998;51.024;13.828;2023-07-20T13:25:34;22.70;78.10
9919;DHT22;4998;51.024;13.828;2023-07-20T13:28:01;22.60;78.60
9919;DHT22;4998;51.024;13.828;2023-07-20T13:30:29;22.60;79.70
9919;DHT22;4998;51.024;13.828;2023-07-20T13:32:56;22.60;79.50
9919;DHT22;4998;51.024;13.828;2023-07-20T13:35:23;22.60;79.90
9919;DHT22;4998;51.024;13.828;2023-07-20T13:37:50;22.70;80.30
9919;DHT22;4998;51.024;13.828;2023-07-20T13:40:17;22.80;79.90
9919;DHT22;4998;51.024;13.828;2023-07-20T13:42:46;22.80;79.30
9919;DHT22;4998;51.024;13.828;2023-07-20T13:45:13;22.90;78.90
9919;DHT22;4998;51.024;13.828;2023-07-20T13:47:40;22.90;78.60
9919;DHT22;4998;51.024;13.828;2023-07-20T13:50:07;22.80;78.10
9919;DHT22;4998;51.024;13.828;2023-07-20T13:52:35;22.80;78.00
9919;DHT22;4998;51.024;13.828;2023-07-20T13:55:03;22.90;78.60
9919;DHT22;4998;51.024;13.828;2023-07-20T13:57:30;22.90;78.60
9919;DHT22;4998;51.024;13.828;2023-07-20T13:59:59;22.90;78.80
9919;DHT22;4998;51.024;13.828;2023-07-20T14:02:27;23.00;78.50
9919;DHT22;4998;51.024;13.828;2023-07-20T14:04:54;23.00;77.70
9919;DHT22;4998;51.024;13.828;2023-07-20T14:07:22;23.10;77.60
9919;DHT22;4998;51.024;13.828;2023-07-20T14:09:49;23.10;77.80
9919;DHT22;4998;51.024;13.828;2023-07-20T14:12:16;23.10;78.00
9919;DHT22;4998;51.024;13.828;2023-07-20T14:14:43;23.10;78.00
9919;DHT22;4998;51.024;13.828;2023-07-20T14:17:12;23.10;78.10
9919;DHT22;4998;51.024;13.828;2023-07-20T14:19:39;23.20;78.00
9919;DHT22;4998;51.024;13.828;2023-07-20T14:22:06;23.20;77.90
9919;DHT22;4998;51.024;13.828;2023-07-20T14:24:33;23.30;77.70
9919;DHT22;4998;51.024;13.828;2023-07-20T14:27:00;23.30;76.80
9919;DHT22;4998;51.024;13.828;2023-07-20T14:29:27;23.40;76.20
9919;DHT22;4998;51.024;13.828;2023-07-20T14:31:57;23.50;76.30
9919;DHT22;4998;51.024;13.828;2023-07-20T14:34:26;23.30;75.80
9919;DHT22;4998;51.024;13.828;2023-07-20T14:36:53;23.50;76.10
9919;DHT22;4998;51.024;13.828;2023-07-20T14:39:20;23.60;76.20
9919;DHT22;4998;51.024;13.828;2023-07-20T14:41:49;23.70;75.40
9919;DHT22;4998;51.024;13.828;2023-07-20T14:44:16;23.70;74.50
9919;DHT22;4998;51.024;13.828;2023-07-20T14:46:43;23.80;74.90
9919;DHT22;4998;51.024;13.828;2023-07-20T14:49:10;23.80;75.10
9919;DHT22;4998;51.024;13.828;2023-07-20T14:51:39;23.80;75.70
9919;DHT22;4998;51.024;13.828;2023-07-20T14:54:09;24.00;75.30
9919;DHT22;4998;51.024;13.828;2023-07-20T14:56:38;24.00;74.70
9919;DHT22;4998;51.024;13.828;2023-07-20T14:59:06;24.20;73.70
9919;DHT22;4998;51.024;13.828;2023-07-20T15:01:33;24.20;73.40
9919;DHT22;4998;51.024;13.828;2023-07-20T15:04:01;24.30;72.50
9919;DHT22;4998;51.024;13.828;2023-07-20T15:06:28;24.30;72.60
9919;DHT22;4998;51.024;13.828;2023-07-20T15:08:57;24.30;71.10
9919;DHT22;4998;51.024;13.828;2023-07-20T15:11:26;24.30;70.60
9919;DHT22;4998;51.024;13.828;2023-07-20T15:13:53;24.30;70.90
9919;DHT22;4998;51.024;13.828;2023-07-20T15:16:20;24.30;70.90
9919;DHT22;4998;51.024;13.828;2023-07-20T15:18:47;24.30;71.20
9919;DHT22;4998;51.024;13.828;2023-07-20T15:21:14;24.40;71.50
9919;DHT22;4998;51.024;13.828;2023-07-20T15:23:41;24.40;72.00
9919;DHT22;4998;51.024;13.828;2023-07-20T15:26:10;24.50;72.00
9919;DHT22;4998;51.024;13.828;2023-07-20T15:28:37;24.60;72.20
9919;DHT22;4998;51.024;13.828;2023-07-20T15:31:05;24.80;71.10
9919;DHT22;4998;51.024;13.828;2023-07-20T15:33:32;24.90;69.00
9919;DHT22;4998;51.024;13.828;2023-07-20T15:35:59;24.90;68.40
9919;DHT22;4998;51.024;13.828;2023-07-20T15:38:26;25.00;69.00
9919;DHT22;4998;51.024;13.828;2023-07-20T15:40:53;25.00;69.30
9919;DHT22;4998;51.024;13.828;2023-07-20T15:43:23;25.20;68.70
9919;DHT22;4998;51.024;13.828;2023-07-20T15:45:51;25.20;69.20
9919;DHT22;4998;51.024;13.828;2023-07-20T15:48:26;25.40;68.40
9919;DHT22;4998;51.024;13.828;2023-07-20T15:50:53;25.40;67.50
9919;DHT22;4998;51.024;13.828;2023-07-20T15:53:20;25.50;66.60